sensor_id;sensor_type;location;lat;lon;timestamp;pressure;altitude;pressure_sealevel;temperature;humidity
71239;BME280;61342;51.442;7.370;2023-02-21T00:00:39;100487.59;;;9.56;100.00
71239;BME280;61342;51.442;7.370;2023-02-21T00:01:58;100481.84;;;9.56;100.00
71239;BME280;61342;51.442;7.370;2023-02-21T00:03:17;100496.97;;;9.57;100.00
71239;BME280;61342;51.442;7.370;2023-02-21T00:04:36;100488.88;;;9.55;100.00
71239;BME280;61342;51.442;7.370;2023-02-21T00:05:55;100484.44;;;9.54;100.00
71239;BME280;61342;51.442;7.370;2023-02-21T00:07:14;100495.41;;;9.56;100.00
71239;BME280;61342;51.442;7.370;2023-02-21T00:08:33;100501.13;;;9.56;100.00
71239;BME280;61342;51.442;7.370;2023-02-21T00:09:52;100484.44;;;9.54;100.00
71239;BME280;61342;51.442;7.370;2023-02-21T00:11:11;100494.63;;;9.55;100.00
71239;BME280;61342;51.442;7.370;2023-02-21T00:12:30;100488.06;;;9.55;100.00
71239;BME280;61342;51.442;7.370;2023-02-21T00:13:49;100488.06;;;9.55;100.00
71239;BME280;61342;51.442;7.370;2023-02-21T00:15:09;100486.78;;;9.56;100.00
71239;BME280;61342;51.442;7.370;2023-02-21T00:16:28;100482.88;;;9.53;100.00
71239;BME280;61342;51.442;7.370;2023-02-21T00:17:47;100484.44;;;9.54;100.00
71239;BME280;61342;51.442;7.370;2023-02-21T00:19:06;100482.63;;;9.51;100.00
71239;BME280;61342;51.442;7.370;2023-02-21T00:20:25;100498.00;;;9.54;100.00
71239;BME280;61342;51.442;7.370;2023-02-21T00:21:44;100491.75;;;9.50;100.00
71239;BME280;61342;51.442;7.370;2023-02-21T00:23:03;100492.78;;;9.52;100.00
71239;BME280;61342;51.442;7.370;2023-02-21T00:24:22;100486.00;;;9.50;100.00
71239;BME280;61342;51.442;7.370;2023-02-21T00:25:42;100502.19;;;9.53;100.00
71239;BME280;61342;51.442;7.370;2023-02-21T00:27:01;100499.81;;;9.51;100.00
71239;BME280;61342;51.442;7.370;2023-02-21T00:28:20;100492.50;;;9.50;100.00
71239;BME280;61342;51.442;7.370;2023-02-21T00:29:39;100500.59;;;9.52;100.00
71239;BME280;61342;51.442;7.370;2023-02-21T00:30:58;100504.00;;;9.50;100.00
71239;BME280;61342;51.442;7.370;2023-02-21T00:32:17;100505.28;;;9.49;100.00
71239;BME280;61342;51.442;7.370;2023-02-21T00:33:36;100497.97;;;9.48;100.00
71239;BME280;61342;51.442;7.370;2023-02-21T00:34:55;100497.19;;;9.48;100.00
71239;BME280;61342;51.442;7.370;2023-02-21T00:36:15;100491.47;;;9.48;100.00
71239;BME280;61342;51.442;7.370;2023-02-21T00:37:34;100496.94;;;9.46;100.00
71239;BME280;61342;51.442;7.370;2023-02-21T00:38:53;100498.50;;;9.47;100.00
71239;BME280;61342;51.442;7.370;2023-02-21T00:40:14;100495.09;;;9.48;100.00
71239;BME280;61342;51.442;7.370;2023-02-21T00:41:33;100499.00;;;9.45;100.00
71239;BME280;61342;51.442;7.370;2023-02-21T00:42:52;100501.63;;;9.43;100.00
71239;BME280;61342;51.442;7.370;2023-02-21T00:44:11;100487.53;;;9.45;100.00
71239;BME280;61342;51.442;7.370;2023-02-21T00:45:30;100485.47;;;9.46;100.00
71239;BME280;61342;51.442;7.370;2023-02-21T00:46:49;100488.56;;;9.42;100.00
71239;BME280;61342;51.442;7.370;2023-02-21T00:48:08;100478.38;;;9.41;100.00
71239;BME280;61342;51.442;7.370;2023-02-21T00:49:27;100482.84;;;9.42;100.00
71239;BME280;61342;51.442;7.370;2023-02-21T00:50:46;100482.84;;;9.42;100.00
71239;BME280;61342;51.442;7.370;2023-02-21T00:52:05;100494.31;;;9.42;100.00
71239;BME280;61342;51.442;7.370;2023-02-21T00:53:24;100482.56;;;9.40;100.00
71239;BME280;61342;51.442;7.370;2023-02-21T00:54:42;100489.09;;;9.41;100.00
71239;BME280;61342;51.442;7.370;2023-02-21T00:56:01;100488.28;;;9.40;100.00
71239;BME280;61342;51.442;7.370;2023-02-21T00:57:20;100495.59;;;9.41;100.00
71239;BME280;61342;51.442;7.370;2023-02-21T00:58:39;100487.53;;;9.40;100.00
71239;BME280;61342;51.442;7.370;2023-02-21T00:59:58;100483.06;;;9.39;100.00
71239;BME280;61342;51.442;7.370;2023-02-21T01:01:17;100489.88;;;9.41;100.00
71239;BME280;61342;51.442;7.370;2023-02-21T01:02:35;100483.34;;;9.41;100.00
71239;BME280;61342;51.442;7.370;2023-02-21T01:03:57;100477.63;;;9.41;100.00
71239;BME280;61342;51.442;7.370;2023-02-21T01:05:16;100477.63;;;9.41;100.00
71239;BME280;61342;51.442;7.370;2023-02-21T01:06:35;100469.53;;;9.39;100.00
71239;BME280;61342;51.442;7.370;2023-02-21T01:07:54;100485.72;;;9.42;100.00
71239;BME280;61342;51.442;7.370;2023-02-21T01:09:12;100475.53;;;9.41;100.00
71239;BME280;61342;51.442;7.370;2023-02-21T01:10:32;100477.63;;;9.41;100.00
71239;BME280;61342;51.442;7.370;2023-02-21T01:11:51;100472.94;;;9.38;100.00
71239;BME280;61342;51.442;7.370;2023-02-21T01:13:10;100476.03;;;9.40;100.00
71239;BME280;61342;51.442;7.370;2023-02-21T01:14:28;100470.53;;;9.36;100.00
71239;BME280;61342;51.442;7.370;2023-02-21T01:15:47;100475.78;;;9.38;100.00
71239;BME280;61342;51.442;7.370;2023-02-21T01:17:06;100479.16;;;9.36;100.00
71239;BME280;61342;51.442;7.370;2023-02-21T01:18:25;100475.50;;;9.36;100.00
71239;BME280;61342;51.442;7.370;2023-02-21T01:19:44;100481.25;;;9.36;100.00
71239;BME280;61342;51.442;7.370;2023-02-21T01:21:03;100477.59;;;9.35;100.00
71239;BME280;61342;51.442;7.370;2023-02-21T01:22:22;100465.06;;;9.33;100.00
71239;BME280;61342;51.442;7.370;2023-02-21T01:23:41;100470.28;;;9.34;100.00
71239;BME280;61342;51.442;7.370;2023-02-21T01:25:00;100465.84;;;9.33;100.00
71239;BME280;61342;51.442;7.370;2023-02-21T01:26:19;100472.88;;;9.32;100.00
71239;BME280;61342;51.442;7.370;2023-02-21T01:27:38;100470.81;;;9.33;100.00
71239;BME280;61342;51.442;7.370;2023-02-21T01:28:57;100473.41;;;9.31;100.00
71239;BME280;61342;51.442;7.370;2023-02-21T01:30:16;100472.63;;;9.30;100.00
71239;BME280;61342;51.442;7.370;2023-02-21T01:31:35;100464.78;;;9.31;100.00
71239;BME280;61342;51.442;7.370;2023-02-21T01:32:53;100459.56;;;9.29;100.00
71239;BME280;61342;51.442;7.370;2023-02-21T01:34:12;100457.47;;;9.30;100.00
71239;BME280;61342;51.442;7.370;2023-02-21T01:35:31;100455.66;;;9.27;100.00
71239;BME280;61342;51.442;7.370;2023-02-21T01:36:51;100458.81;;;9.29;100.00
71239;BME280;61342;51.442;7.370;2023-02-21T01:38:10;100467.66;;;9.31;100.00
71239;BME280;61342;51.442;7.370;2023-02-21T01:39:29;100469.25;;;9.32;100.00
71239;BME280;61342;51.442;7.370;2023-02-21T01:40:48;100465.31;;;9.29;100.00
71239;BME280;61342;51.442;7.370;2023-02-21T01:42:08;100459.56;;;9.29;100.00
71239;BME280;61342;51.442;7.370;2023-02-21T01:43:28;100455.41;;;9.25;100.00
71239;BME280;61342;51.442;7.370;2023-02-21T01:44:47;100464.53;;;9.29;100.00
71239;BME280;61342;51.442;7.370;2023-02-21T01:46:14;100455.66;;;9.27;100.00
71239;BME280;61342;51.442;7.370;2023-02-21T01:47:34;100457.47;;;9.24;100.00
71239;BME280;61342;51.442;7.370;2023-02-21T01:48:53;100462.19;;;9.27;100.00
71239;BME280;61342;51.442;7.370;2023-02-21T01:50:23;100454.34;;;9.22;100.00
71239;BME280;61342;51.442;7.370;2023-02-21T01:51:43;100453.06;;;9.23;100.00
71239;BME280;61342;51.442;7.370;2023-02-21T01:53:06;100460.63;;;9.26;100.00
71239;BME280;61342;51.442;7.370;2023-02-21T01:54:30;100463.19;;;9.24;100.00
71239;BME280;61342;51.442;7.370;2023-02-21T01:55:50;100460.34;;;9.24;100.00
71239;BME280;61342;51.442;7.370;2023-02-21T01:57:10;100462.69;;;9.26;100.00
71239;BME280;61342;51.442;7.370;2023-02-21T01:58:31;100465.56;;;9.26;100.00
71239;BME280;61342;51.442;7.370;2023-02-21T01:59:52;100460.84;;;9.23;100.00
71239;BME280;61342;51.442;7.370;2023-02-21T02:01:30;100458.50;;;9.21;100.00
71239;BME280;61342;51.442;7.370;2023-02-21T02:02:56;100459.28;;;9.22;100.00
71239;BME280;61342;51.442;7.370;2023-02-21T02:04:15;100462.16;;;9.22;100.00
71239;BME280;61342;51.442;7.370;2023-02-21T02:05:38;100460.31;;;9.19;100.00
71239;BME280;61342;51.442;7.370;2023-02-21T02:06:58;100461.38;;;9.21;100.00
71239;BME280;61342;51.442;7.370;2023-02-21T02:08:20;100455.09;;;9.18;100.00
71239;BME280;61342;51.442;7.370;2023-02-21T02:09:43;100455.09;;;9.18;100.00
71239;BME280;61342;51.442;7.370;2023-02-21T02:11:13;100456.69;;;9.18;100.00
71239;BME280;61342;51.442;7.370;2023-02-21T02:15:33;100458.25;;;9.19;100.00
71239;BME280;61342;51.442;7.370;2023-02-21T02:17:00;100465.28;;;9.18;100.00
71239;BME280;61342;51.442;7.370;2023-02-21T02:20:02;100463.47;;;9.21;100.00
71239;BME280;61342;51.442;7.370;2023-02-21T02:24:53;100463.72;;;9.18;100.00
71239;BME280;61342;51.442;7.370;2023-02-21T02:28:03;100457.97;;;9.18;100.00
71239;BME280;61342;51.442;7.370;2023-02-21T02:35:44;100454.84;;;9.16;100.00
71239;BME280;61342;51.442;7.370;2023-02-21T02:36:52;100456.41;;;9.17;100.00
71239;BME280;61342;51.442;7.370;2023-02-21T02:38:17;100459.25;;;9.17;100.00
71239;BME280;61342;51.442;7.370;2023-02-21T02:39:39;100460.59;;;9.16;100.00
71239;BME280;61342;51.442;7.370;2023-02-21T02:40:53;100468.91;;;9.19;100.00
71239;BME280;61342;51.442;7.370;2023-02-21T02:42:06;100452.75;;;9.16;100.00
71239;BME280;61342;51.442;7.370;2023-02-21T02:43:33;100456.41;;;9.17;100.00
71239;BME280;61342;51.442;7.370;2023-02-21T02:44:39;100459.03;;;9.20;100.00
71239;BME280;61342;51.442;7.370;2023-02-21T02:45:56;100452.53;;;9.19;100.00
71239;BME280;61342;51.442;7.370;2023-02-21T02:46:59;100440.00;;;9.17;100.00
71239;BME280;61342;51.442;7.370;2023-02-21T02:48:09;100448.59;;;9.22;100.00
71239;BME280;61342;51.442;7.370;2023-02-21T02:49:19;100455.91;;;9.23;100.00
71239;BME280;61342;51.442;7.370;2023-02-21T02:50:22;100437.91;;;9.23;100.00
71239;BME280;61342;51.442;7.370;2023-02-21T02:51:24;100449.16;;;9.26;100.00
71239;BME280;61342;51.442;7.370;2023-02-21T02:52:25;100435.03;;;9.23;100.00
71239;BME280;61342;51.442;7.370;2023-02-21T02:53:27;100442.13;;;9.27;100.00
71239;BME280;61342;51.442;7.370;2023-02-21T02:54:28;100443.66;;;9.28;100.00
71239;BME280;61342;51.442;7.370;2023-02-21T02:55:46;100438.72;;;9.23;100.00
71239;BME280;61342;51.442;7.370;2023-02-21T02:56:48;100434.81;;;9.26;100.00
71239;BME280;61342;51.442;7.370;2023-02-21T02:57:48;100434.00;;;9.26;100.00
71239;BME280;61342;51.442;7.370;2023-02-21T02:58:57;100445.22;;;9.24;100.00
71239;BME280;61342;51.442;7.370;2023-02-21T02:59:59;100434.81;;;9.26;100.00
71239;BME280;61342;51.442;7.370;2023-02-21T03:06:04;100431.41;;;9.22;100.00
71239;BME280;61342;51.442;7.370;2023-02-21T03:07:27;100436.34;;;9.22;100.00
71239;BME280;61342;51.442;7.370;2023-02-21T03:08:45;100433.47;;;9.22;100.00
71239;BME280;61342;51.442;7.370;2023-02-21T03:11:03;100436.38;;;9.27;100.00
71239;BME280;61342;51.442;7.370;2023-02-21T03:12:18;100438.97;;;9.25;100.00
71239;BME280;61342;51.442;7.370;2023-02-21T03:13:39;100443.66;;;9.23;100.00
71239;BME280;61342;51.442;7.370;2023-02-21T03:17:25;100438.72;;;9.23;100.00
71239;BME280;61342;51.442;7.370;2023-02-21T03:18:35;100445.22;;;9.24;100.00
71239;BME280;61342;51.442;7.370;2023-02-21T03:19:42;100436.84;;;9.20;100.00
71239;BME280;61342;51.442;7.370;2023-02-21T03:20:45;100446.78;;;9.25;100.00
71239;BME280;61342;51.442;7.370;2023-02-21T03:21:53;100444.19;;;9.27;100.00
71239;BME280;61342;51.442;7.370;2023-02-21T03:22:56;100440.25;;;9.24;100.00
71239;BME280;61342;51.442;7.370;2023-02-21T03:23:59;100441.59;;;9.23;100.00
71239;BME280;61342;51.442;7.370;2023-02-21T03:25:03;100446.53;;;9.28;100.00
71239;BME280;61342;51.442;7.370;2023-02-21T03:26:06;100455.13;;;9.28;100.00
71239;BME280;61342;51.442;7.370;2023-02-21T03:27:08;100449.16;;;9.26;100.00
71239;BME280;61342;51.442;7.370;2023-02-21T03:28:10;100443.66;;;9.28;100.00
71239;BME280;61342;51.442;7.370;2023-02-21T03:29:11;100440.78;;;9.28;100.00
71239;BME280;61342;51.442;7.370;2023-02-21T03:30:13;100438.22;;;9.30;100.00
71239;BME280;61342;51.442;7.370;2023-02-21T03:31:16;100434.53;;;9.30;100.00
71239;BME280;61342;51.442;7.370;2023-02-21T03:32:30;100431.94;;;9.26;100.00
71239;BME280;61342;51.442;7.370;2023-02-21T03:33:31;100437.91;;;9.28;100.00
71239;BME280;61342;51.442;7.370;2023-02-21T03:34:32;100432.72;;;9.27;100.00
71239;BME280;61342;51.442;7.370;2023-02-21T03:35:32;100435.84;;;9.29;100.00
71239;BME280;61342;51.442;7.370;2023-02-21T03:36:33;100435.06;;;9.28;100.00
71239;BME280;61342;51.442;7.370;2023-02-21T03:38:35;100437.91;;;9.28;100.00
71239;BME280;61342;51.442;7.370;2023-02-21T03:39:36;100433.50;;;9.27;100.00
71239;BME280;61342;51.442;7.370;2023-02-21T03:40:36;100436.88;;;9.26;100.00
71239;BME280;61342;51.442;7.370;2023-02-21T03:41:36;100430.66;;;9.27;100.00
71239;BME280;61342;51.442;7.370;2023-02-21T03:42:37;100437.41;;;9.30;100.00
71239;BME280;61342;51.442;7.370;2023-02-21T03:43:37;100428.03;;;9.29;100.00
71239;BME280;61342;51.442;7.370;2023-02-21T03:44:38;100429.31;;;9.28;100.00
71239;BME280;61342;51.442;7.370;2023-02-21T03:45:38;100437.66;;;9.26;100.00
71239;BME280;61342;51.442;7.370;2023-02-21T03:46:38;100433.50;;;9.27;100.00
71239;BME280;61342;51.442;7.370;2023-02-21T03:47:39;100429.59;;;9.25;100.00
71239;BME280;61342;51.442;7.370;2023-02-21T03:48:39;100436.38;;;9.27;100.00
71239;BME280;61342;51.442;7.370;2023-02-21T03:49:39;100431.94;;;9.26;100.00
71239;BME280;61342;51.442;7.370;2023-02-21T03:50:40;100428.78;;;9.24;100.00
71239;BME280;61342;51.442;7.370;2023-02-21T03:51:40;100429.59;;;9.25;100.00
71239;BME280;61342;51.442;7.370;2023-02-21T03:52:41;100432.47;;;9.25;100.00
71239;BME280;61342;51.442;7.370;2023-02-21T03:53:41;100428.78;;;9.24;100.00
71239;BME280;61342;51.442;7.370;2023-02-21T03:54:42;100427.78;;;9.27;100.00
71239;BME280;61342;51.442;7.370;2023-02-21T03:55:42;100426.72;;;9.25;100.00
71239;BME280;61342;51.442;7.370;2023-02-21T03:56:43;100423.84;;;9.25;100.00
71239;BME280;61342;51.442;7.370;2023-02-21T03:57:43;100419.66;;;9.26;100.00
71239;BME280;61342;51.442;7.370;2023-02-21T03:58:43;100423.34;;;9.26;100.00
71239;BME280;61342;51.442;7.370;2023-02-21T03:59:44;100429.06;;;9.26;100.00
71239;BME280;61342;51.442;7.370;2023-02-21T04:00:45;100425.69;;;9.28;100.00
71239;BME280;61342;51.442;7.370;2023-02-21T04:01:45;100424.91;;;9.27;100.00
71239;BME280;61342;51.442;7.370;2023-02-21T04:02:45;100434.28;;;9.28;100.00
71239;BME280;61342;51.442;7.370;2023-02-21T04:03:46;100432.72;;;9.27;100.00
71239;BME280;61342;51.442;7.370;2023-02-21T04:04:47;100434.81;;;9.26;100.00
71239;BME280;61342;51.442;7.370;2023-02-21T04:05:47;100429.84;;;9.27;100.00
71239;BME280;61342;51.442;7.370;2023-02-21T04:06:48;100431.41;;;9.28;100.00
71239;BME280;61342;51.442;7.370;2023-02-21T04:07:48;100430.09;;;9.23;100.00
71239;BME280;61342;51.442;7.370;2023-02-21T04:08:48;100428.78;;;9.24;100.00
71239;BME280;61342;51.442;7.370;2023-02-21T04:09:49;100434.28;;;9.28;100.00
71239;BME280;61342;51.442;7.370;2023-02-21T04:10:49;100434.28;;;9.28;100.00
71239;BME280;61342;51.442;7.370;2023-02-21T04:11:49;100435.06;;;9.28;100.00
71239;BME280;61342;51.442;7.370;2023-02-21T04:12:50;100431.66;;;9.24;100.00
71239;BME280;61342;51.442;7.370;2023-02-21T04:13:50;100441.59;;;9.29;100.00
71239;BME280;61342;51.442;7.370;2023-02-21T04:14:50;100435.06;;;9.28;100.00
71239;BME280;61342;51.442;7.370;2023-02-21T04:15:51;100437.16;;;9.28;100.00
71239;BME280;61342;51.442;7.370;2023-02-21T04:16:52;100443.13;;;9.30;100.00
71239;BME280;61342;51.442;7.370;2023-02-21T04:17:52;100433.22;;;9.25;100.00
71239;BME280;61342;51.442;7.370;2023-02-21T04:18:52;100437.66;;;9.26;100.00
71239;BME280;61342;51.442;7.370;2023-02-21T04:19:53;100436.09;;;9.25;100.00
71239;BME280;61342;51.442;7.370;2023-02-21T04:20:53;100436.38;;;9.27;100.00
71239;BME280;61342;51.442;7.370;2023-02-21T04:21:53;100428.78;;;9.24;100.00
71239;BME280;61342;51.442;7.370;2023-02-21T04:22:53;100432.47;;;9.25;100.00
71239;BME280;61342;51.442;7.370;2023-02-21T04:23:54;100433.75;;;9.29;100.00
71239;BME280;61342;51.442;7.370;2023-02-21T04:24:55;100431.94;;;9.26;100.00
71239;BME280;61342;51.442;7.370;2023-02-21T04:25:56;100435.84;;;9.29;100.00
71239;BME280;61342;51.442;7.370;2023-02-21T04:26:56;100426.72;;;9.30;100.00
71239;BME280;61342;51.442;7.370;2023-02-21T04:27:57;100427.78;;;9.27;100.00
71239;BME280;61342;51.442;7.370;2023-02-21T04:28:57;100424.38;;;9.29;100.00
71239;BME280;61342;51.442;7.370;2023-02-21T04:29:57;100431.94;;;9.26;100.00
71239;BME280;61342;51.442;7.370;2023-02-21T04:30:58;100431.13;;;9.26;100.00
71239;BME280;61342;51.442;7.370;2023-02-21T04:31:58;100432.47;;;9.30;100.00
71239;BME280;61342;51.442;7.370;2023-02-21T04:32:59;100426.72;;;9.30;100.00
71239;BME280;61342;51.442;7.370;2023-02-21T04:33:59;100431.66;;;9.30;100.00
71239;BME280;61342;51.442;7.370;2023-02-21T04:34:59;100426.72;;;9.30;100.00
71239;BME280;61342;51.442;7.370;2023-02-21T04:36:00;100433.25;;;9.31;100.00
71239;BME280;61342;51.442;7.370;2023-02-21T04:37:00;100424.63;;;9.31;100.00
71239;BME280;61342;51.442;7.370;2023-02-21T04:38:00;100432.19;;;9.28;100.00
71239;BME280;61342;51.442;7.370;2023-02-21T04:39:01;100423.34;;;9.26;100.00
71239;BME280;61342;51.442;7.370;2023-02-21T04:40:01;100430.66;;;9.27;100.00
71239;BME280;61342;51.442;7.370;2023-02-21T04:41:02;100431.66;;;9.30;100.00
71239;BME280;61342;51.442;7.370;2023-02-21T04:42:02;100427.78;;;9.27;100.00
71239;BME280;61342;51.442;7.370;2023-02-21T04:43:03;100429.09;;;9.32;100.00
71239;BME280;61342;51.442;7.370;2023-02-21T04:44:03;100424.91;;;9.27;100.00
71239;BME280;61342;51.442;7.370;2023-02-21T04:45:04;100426.22;;;9.32;100.00
71239;BME280;61342;51.442;7.370;2023-02-21T04:46:04;100413.69;;;9.29;100.00
71239;BME280;61342;51.442;7.370;2023-02-21T04:47:05;100421.78;;;9.31;100.00
71239;BME280;61342;51.442;7.370;2023-02-21T04:48:05;100417.31;;;9.30;100.00
71239;BME280;61342;51.442;7.370;2023-02-21T04:49:05;100426.97;;;9.32;100.00
71239;BME280;61342;51.442;7.370;2023-02-21T04:50:06;100418.13;;;9.30;100.00
71239;BME280;61342;51.442;7.370;2023-02-21T04:51:06;100410.28;;;9.31;100.00
71239;BME280;61342;51.442;7.370;2023-02-21T04:52:06;100418.38;;;9.32;100.00
71239;BME280;61342;51.442;7.370;2023-02-21T04:53:07;100419.94;;;9.33;100.00
71239;BME280;61342;51.442;7.370;2023-02-21T04:54:07;100425.44;;;9.31;100.00
71239;BME280;61342;51.442;7.370;2023-02-21T04:55:08;100407.44;;;9.31;100.00
71239;BME280;61342;51.442;7.370;2023-02-21T04:56:08;100417.59;;;9.32;100.00
71239;BME280;61342;51.442;7.370;2023-02-21T04:57:10;100414.47;;;9.30;100.00
71239;BME280;61342;51.442;7.370;2023-02-21T04:58:10;100409.78;;;9.32;100.00
71239;BME280;61342;51.442;7.370;2023-02-21T04:59:10;100414.75;;;9.32;100.00
71239;BME280;61342;51.442;7.370;2023-02-21T05:00:12;100408.22;;;9.31;100.00
71239;BME280;61342;51.442;7.370;2023-02-21T05:01:33;100402.22;;;9.29;100.00
71239;BME280;61342;51.442;7.370;2023-02-21T05:02:33;100407.44;;;9.31;100.00
71239;BME280;61342;51.442;7.370;2023-02-21T05:03:33;100412.09;;;9.28;100.00
71239;BME280;61342;51.442;7.370;2023-02-21T05:04:35;100404.31;;;9.29;100.00
71239;BME280;61342;51.442;7.370;2023-02-21T05:05:35;100406.91;;;9.32;100.00
71239;BME280;61342;51.442;7.370;2023-02-21T05:06:36;100406.91;;;9.32;100.00
71239;BME280;61342;51.442;7.370;2023-02-21T05:07:36;100411.09;;;9.31;100.00
71239;BME280;61342;51.442;7.370;2023-02-21T05:08:36;100412.41;;;9.36;100.00
71239;BME280;61342;51.442;7.370;2023-02-21T05:09:37;100407.72;;;9.33;100.00
71239;BME280;61342;51.442;7.370;2023-02-21T05:10:37;100404.84;;;9.33;100.00
71239;BME280;61342;51.442;7.370;2023-02-21T05:11:37;100407.19;;;9.34;100.00
71239;BME280;61342;51.442;7.370;2023-02-21T05:12:38;100413.16;;;9.36;100.00
71239;BME280;61342;51.442;7.370;2023-02-21T05:13:39;100411.34;;;9.33;100.00
71239;BME280;61342;51.442;7.370;2023-02-21T05:14:40;100412.91;;;9.34;100.00
71239;BME280;61342;51.442;7.370;2023-02-21T05:15:41;100425.69;;;9.39;100.00
71239;BME280;61342;51.442;7.370;2023-02-21T05:16:42;100415.56;;;9.38;100.00
71239;BME280;61342;51.442;7.370;2023-02-21T05:17:42;100422.84;;;9.39;100.00
71239;BME280;61342;51.442;7.370;2023-02-21T05:18:44;100416.31;;;9.33;100.00
71239;BME280;61342;51.442;7.370;2023-02-21T05:19:45;100417.38;;;9.35;100.00
71239;BME280;61342;51.442;7.370;2023-02-21T05:20:46;100416.84;;;9.31;100.00
71239;BME280;61342;51.442;7.370;2023-02-21T05:21:46;100417.38;;;9.35;100.00
71239;BME280;61342;51.442;7.370;2023-02-21T05:22:47;100432.47;;;9.36;100.00
71239;BME280;61342;51.442;7.370;2023-02-21T05:23:47;100421.53;;;9.34;100.00
71239;BME280;61342;51.442;7.370;2023-02-21T05:24:57;100421.00;;;9.30;100.00
71239;BME280;61342;51.442;7.370;2023-02-21T05:25:57;100421.53;;;9.34;100.00
71239;BME280;61342;51.442;7.370;2023-02-21T05:26:58;100428.84;;;9.35;100.00
71239;BME280;61342;51.442;7.370;2023-02-21T05:27:58;100422.31;;;9.35;100.00
71239;BME280;61342;51.442;7.370;2023-02-21T05:28:58;100434.81;;;9.37;100.00
71239;BME280;61342;51.442;7.370;2023-02-21T05:29:59;100426.22;;;9.32;100.00
71239;BME280;61342;51.442;7.370;2023-02-21T05:30:59;100429.63;;;9.36;100.00
71239;BME280;61342;51.442;7.370;2023-02-21T05:32:00;100435.34;;;9.36;100.00
71239;BME280;61342;51.442;7.370;2023-02-21T05:33:00;100427.25;;;9.34;100.00
71239;BME280;61342;51.442;7.370;2023-02-21T05:34:00;100424.41;;;9.34;100.00
71239;BME280;61342;51.442;7.370;2023-02-21T05:35:01;100425.97;;;9.35;100.00
71239;BME280;61342;51.442;7.370;2023-02-21T05:36:03;100421.53;;;9.34;100.00
71239;BME280;61342;51.442;7.370;2023-02-21T05:37:04;100427.03;;;9.38;100.00
71239;BME280;61342;51.442;7.370;2023-02-21T05:38:04;100420.47;;;9.32;100.00
71239;BME280;61342;51.442;7.370;2023-02-21T05:39:06;100422.81;;;9.33;100.00
71239;BME280;61342;51.442;7.370;2023-02-21T05:40:06;100425.19;;;9.40;100.00
71239;BME280;61342;51.442;7.370;2023-02-21T05:41:09;100422.06;;;9.38;100.00
71239;BME280;61342;51.442;7.370;2023-02-21T05:42:09;100423.34;;;9.37;100.00
71239;BME280;61342;51.442;7.370;2023-02-21T05:43:10;100425.19;;;9.40;100.00
71239;BME280;61342;51.442;7.370;2023-02-21T05:44:11;100417.38;;;9.35;100.00
71239;BME280;61342;51.442;7.370;2023-02-21T05:45:11;100415.78;;;9.34;100.00
71239;BME280;61342;51.442;7.370;2023-02-21T05:46:26;100428.56;;;9.39;100.00
71239;BME280;61342;51.442;7.370;2023-02-21T05:47:26;100423.88;;;9.36;100.00
71239;BME280;61342;51.442;7.370;2023-02-21T05:48:27;100432.75;;;9.38;100.00
71239;BME280;61342;51.442;7.370;2023-02-21T05:49:27;100425.69;;;9.39;100.00
71239;BME280;61342;51.442;7.370;2023-02-21T05:50:28;100423.13;;;9.41;100.00
71239;BME280;61342;51.442;7.370;2023-02-21T05:51:37;100424.41;;;9.34;100.00
71239;BME280;61342;51.442;7.370;2023-02-21T05:52:37;100427.78;;;9.38;100.00
71239;BME280;61342;51.442;7.370;2023-02-21T05:53:38;100422.81;;;9.33;100.00
71239;BME280;61342;51.442;7.370;2023-02-21T05:54:38;100436.16;;;9.42;100.00
71239;BME280;61342;51.442;7.370;2023-02-21T05:55:39;100422.31;;;9.35;100.00
71239;BME280;61342;51.442;7.370;2023-02-21T05:56:40;100428.31;;;9.42;100.00
71239;BME280;61342;51.442;7.370;2023-02-21T05:57:41;100429.38;;;9.39;100.00
71239;BME280;61342;51.442;7.370;2023-02-21T05:58:42;100427.81;;;9.44;100.00
71239;BME280;61342;51.442;7.370;2023-02-21T05:59:42;100425.97;;;9.41;100.00
71239;BME280;61342;51.442;7.370;2023-02-21T06:00:42;100418.91;;;9.36;100.00
71239;BME280;61342;51.442;7.370;2023-02-21T06:01:43;100432.50;;;9.41;100.00
71239;BME280;61342;51.442;7.370;2023-02-21T06:02:43;100427.56;;;9.42;100.00
71239;BME280;61342;51.442;7.370;2023-02-21T06:06:27;100403.50;;;9.23;100.00
71239;BME280;61342;51.442;7.370;2023-02-21T06:07:28;100408.47;;;9.28;100.00
71239;BME280;61342;51.442;7.370;2023-02-21T06:08:28;100412.09;;;9.28;100.00
71239;BME280;61342;51.442;7.370;2023-02-21T06:09:35;100431.44;;;9.44;100.00
71239;BME280;61342;51.442;7.370;2023-02-21T06:10:41;100404.84;;;9.27;100.00
71239;BME280;61342;51.442;7.370;2023-02-21T06:11:42;100423.13;;;9.46;100.00
71239;BME280;61342;51.442;7.370;2023-02-21T06:12:46;100416.06;;;9.42;100.00
71239;BME280;61342;51.442;7.370;2023-02-21T06:13:49;100425.72;;;9.44;100.00
71239;BME280;61342;51.442;7.370;2023-02-21T06:14:52;100413.47;;;9.44;100.00
71239;BME280;61342;51.442;7.370;2023-02-21T06:15:53;100410.34;;;9.42;100.00
71239;BME280;61342;51.442;7.370;2023-02-21T06:16:54;100409.28;;;9.45;100.00
71239;BME280;61342;51.442;7.370;2023-02-21T06:17:54;100412.94;;;9.45;100.00
71239;BME280;61342;51.442;7.370;2023-02-21T06:18:56;100415.56;;;9.49;100.00
71239;BME280;61342;51.442;7.370;2023-02-21T06:19:56;100411.66;;;9.46;100.00
71239;BME280;61342;51.442;7.370;2023-02-21T06:20:56;100407.47;;;9.47;100.00
71239;BME280;61342;51.442;7.370;2023-02-21T06:21:57;100405.66;;;9.50;100.00
71239;BME280;61342;51.442;7.370;2023-02-21T06:22:57;100406.97;;;9.49;100.00
71239;BME280;61342;51.442;7.370;2023-02-21T06:23:58;100408.25;;;9.48;100.00
71239;BME280;61342;51.442;7.370;2023-02-21T06:24:58;100398.59;;;9.45;100.00
71239;BME280;61342;51.442;7.370;2023-02-21T06:26:02;100415.31;;;9.52;100.00